sensor_id;sensor_type;location;lat;lon;timestamp;pressure;altitude;pressure_sealevel;temperature;humidity
32761;BME280;19126;47.472;7.850;2024-02-04T00:00:47;75880.34;;;-146.25;61.38
32761;BME280;19126;47.472;7.850;2024-02-04T00:03:15;75890.34;;;-146.25;60.87
32761;BME280;19126;47.472;7.850;2024-02-04T00:05:42;75880.34;;;-146.25;60.32
32761;BME280;19126;47.472;7.850;2024-02-04T00:08:10;75894.38;;;-146.25;60.99
32761;BME280;19126;47.472;7.850;2024-02-04T00:10:38;75890.34;;;-146.25;60.79
32761;BME280;19126;47.472;7.850;2024-02-04T00:13:06;75886.34;;;-146.25;61.02
32761;BME280;19126;47.472;7.850;2024-02-04T00:15:33;75890.34;;;-146.25;60.75
32761;BME280;19126;47.472;7.850;2024-02-04T00:18:00;75894.38;;;-146.25;60.11
32761;BME280;19126;47.472;7.850;2024-02-04T00:20:29;75896.38;;;-146.25;60.99
32761;BME280;19126;47.472;7.850;2024-02-04T00:22:58;75882.34;;;-146.25;60.98
32761;BME280;19126;47.472;7.850;2024-02-04T00:25:26;75888.34;;;-146.25;60.92
32761;BME280;19126;47.472;7.850;2024-02-04T00:27:56;75888.34;;;-146.25;61.02
32761;BME280;19126;47.472;7.850;2024-02-04T00:30:23;75894.38;;;-146.25;60.97
32761;BME280;19126;47.472;7.850;2024-02-04T00:32:52;75890.34;;;-146.25;60.59
32761;BME280;19126;47.472;7.850;2024-02-04T00:35:19;75890.34;;;-146.25;60.65
32761;BME280;19126;47.472;7.850;2024-02-04T00:37:48;75890.34;;;-146.25;60.13
32761;BME280;19126;47.472;7.850;2024-02-04T00:40:16;75890.34;;;-146.25;59.93
32761;BME280;19126;47.472;7.850;2024-02-04T00:42:43;75878.31;;;-146.25;59.92
32761;BME280;19126;47.472;7.850;2024-02-04T00:45:11;75870.31;;;-146.25;60.30
32761;BME280;19126;47.472;7.850;2024-02-04T00:47:38;75874.31;;;-146.25;59.71
32761;BME280;19126;47.472;7.850;2024-02-04T00:50:07;75882.34;;;-146.25;60.47
32761;BME280;19126;47.472;7.850;2024-02-04T00:52:35;75870.31;;;-146.25;60.01
32761;BME280;19126;47.472;7.850;2024-02-04T00:55:04;75864.28;;;-146.25;60.80
32761;BME280;19126;47.472;7.850;2024-02-04T00:57:31;75862.28;;;-146.25;60.33
32761;BME280;19126;47.472;7.850;2024-02-04T00:59:59;75868.31;;;-146.25;60.75
32761;BME280;19126;47.472;7.850;2024-02-04T01:02:26;75874.31;;;-146.25;59.66
32761;BME280;19126;47.472;7.850;2024-02-04T01:04:54;75860.28;;;-146.25;59.71
32761;BME280;19126;47.472;7.850;2024-02-04T01:07:22;75844.22;;;-146.25;60.14
32761;BME280;19126;47.472;7.850;2024-02-04T01:09:58;75858.28;;;-146.25;60.73
32761;BME280;19126;47.472;7.850;2024-02-04T01:12:32;75846.25;;;-146.25;61.19
32761;BME280;19126;47.472;7.850;2024-02-04T01:14:59;75842.22;;;-146.25;61.53
32761;BME280;19126;47.472;7.850;2024-02-04T01:17:27;75838.22;;;-146.25;61.83
32761;BME280;19126;47.472;7.850;2024-02-04T01:19:56;75840.22;;;-146.25;62.15
32761;BME280;19126;47.472;7.850;2024-02-04T01:22:23;75834.22;;;-146.25;63.04
32761;BME280;19126;47.472;7.850;2024-02-04T01:24:53;75824.19;;;-146.25;62.71
32761;BME280;19126;47.472;7.850;2024-02-04T01:27:20;75814.16;;;-146.25;63.21
32761;BME280;19126;47.472;7.850;2024-02-04T01:29:49;75806.13;;;-146.25;64.38
32761;BME280;19126;47.472;7.850;2024-02-04T01:32:16;75810.16;;;-146.25;64.11
32761;BME280;19126;47.472;7.850;2024-02-04T01:34:47;75816.16;;;-146.25;64.30
32761;BME280;19126;47.472;7.850;2024-02-04T01:37:15;75812.16;;;-146.25;64.39
32761;BME280;19126;47.472;7.850;2024-02-04T01:39:42;75814.16;;;-146.25;64.41
32761;BME280;19126;47.472;7.850;2024-02-04T01:42:09;75816.16;;;-146.25;65.05
32761;BME280;19126;47.472;7.850;2024-02-04T01:44:37;75818.16;;;-146.25;64.75
32761;BME280;19126;47.472;7.850;2024-02-04T01:47:06;75818.16;;;-146.25;64.95
32761;BME280;19126;47.472;7.850;2024-02-04T01:49:34;75824.19;;;-146.25;64.43
32761;BME280;19126;47.472;7.850;2024-02-04T01:52:02;75834.22;;;-146.25;64.39
32761;BME280;19126;47.472;7.850;2024-02-04T01:54:32;75830.19;;;-146.25;63.84
32761;BME280;19126;47.472;7.850;2024-02-04T01:57:00;75830.19;;;-146.25;63.12
32761;BME280;19126;47.472;7.850;2024-02-04T01:59:28;75818.16;;;-146.25;62.88
32761;BME280;19126;47.472;7.850;2024-02-04T02:01:57;75834.22;;;-146.25;63.02
32761;BME280;19126;47.472;7.850;2024-02-04T02:04:28;75838.22;;;-146.25;63.31
32761;BME280;19126;47.472;7.850;2024-02-04T02:06:55;75842.22;;;-146.25;62.79
32761;BME280;19126;47.472;7.850;2024-02-04T02:09:25;75844.22;;;-146.25;63.08
32761;BME280;19126;47.472;7.850;2024-02-04T02:12:03;75854.25;;;-146.25;63.57
32761;BME280;19126;47.472;7.850;2024-02-04T02:14:44;75854.25;;;-146.25;64.14
32761;BME280;19126;47.472;7.850;2024-02-04T02:17:18;75864.28;;;-146.25;65.20
32761;BME280;19126;47.472;7.850;2024-02-04T02:19:54;75878.31;;;-146.25;65.71
32761;BME280;19126;47.472;7.850;2024-02-04T02:22:30;75866.28;;;-146.25;65.49
32761;BME280;19126;47.472;7.850;2024-02-04T02:25:08;75870.31;;;-146.25;66.56
32761;BME280;19126;47.472;7.850;2024-02-04T02:27:46;75876.31;;;-146.25;66.71
32761;BME280;19126;47.472;7.850;2024-02-04T02:30:15;75870.31;;;-146.25;67.03
32761;BME280;19126;47.472;7.850;2024-02-04T02:32:44;75870.31;;;-146.25;66.95
32761;BME280;19126;47.472;7.850;2024-02-04T02:35:13;75860.28;;;-146.25;67.04
32761;BME280;19126;47.472;7.850;2024-02-04T02:37:50;75860.28;;;-146.25;66.68
32761;BME280;19126;47.472;7.850;2024-02-04T02:40:33;75822.19;;;-146.25;67.88
32761;BME280;19126;47.472;7.850;2024-02-04T02:43:03;75826.19;;;-146.25;68.92
32761;BME280;19126;47.472;7.850;2024-02-04T02:45:34;75822.19;;;-146.25;69.49
32761;BME280;19126;47.472;7.850;2024-02-04T02:48:02;75826.19;;;-146.25;70.09
32761;BME280;19126;47.472;7.850;2024-02-04T02:50:32;75838.22;;;-146.25;70.31
32761;BME280;19126;47.472;7.850;2024-02-04T02:52:59;75852.25;;;-146.25;70.82
32761;BME280;19126;47.472;7.850;2024-02-04T02:55:28;75856.28;;;-146.25;69.99
32761;BME280;19126;47.472;7.850;2024-02-04T02:57:55;75866.28;;;-146.25;69.54
32761;BME280;19126;47.472;7.850;2024-02-04T03:00:22;75872.31;;;-146.25;69.40
32761;BME280;19126;47.472;7.850;2024-02-04T03:02:50;75858.28;;;-146.25;68.72
32761;BME280;19126;47.472;7.850;2024-02-04T03:05:18;75858.28;;;-146.25;69.31
32761;BME280;19126;47.472;7.850;2024-02-04T03:07:45;75848.25;;;-146.25;68.99
32761;BME280;19126;47.472;7.850;2024-02-04T03:10:13;75844.22;;;-146.25;69.16
32761;BME280;19126;47.472;7.850;2024-02-04T03:12:41;75856.28;;;-146.25;69.74
32761;BME280;19126;47.472;7.850;2024-02-04T03:15:09;75862.28;;;-146.25;69.78
32761;BME280;19126;47.472;7.850;2024-02-04T03:17:36;75878.31;;;-146.25;70.16
32761;BME280;19126;47.472;7.850;2024-02-04T03:20:05;75884.34;;;-146.25;69.71
32761;BME280;19126;47.472;7.850;2024-02-04T03:22:32;75878.31;;;-146.25;69.02
32761;BME280;19126;47.472;7.850;2024-02-04T03:25:00;75882.34;;;-146.25;68.76
32761;BME280;19126;47.472;7.850;2024-02-04T03:27:27;75878.31;;;-146.25;69.09
32761;BME280;19126;47.472;7.850;2024-02-04T03:29:56;75876.31;;;-146.25;68.67
32761;BME280;19126;47.472;7.850;2024-02-04T03:32:23;75878.31;;;-146.25;68.64
32761;BME280;19126;47.472;7.850;2024-02-04T03:34:50;75876.31;;;-146.25;69.01
32761;BME280;19126;47.472;7.850;2024-02-04T03:37:17;75872.31;;;-146.25;68.72
32761;BME280;19126;47.472;7.850;2024-02-04T03:39:45;75880.34;;;-146.25;70.02
32761;BME280;19126;47.472;7.850;2024-02-04T03:42:12;75866.28;;;-146.25;70.72
32761;BME280;19126;47.472;7.850;2024-02-04T03:44:39;75858.28;;;-146.25;71.37
32761;BME280;19126;47.472;7.850;2024-02-04T03:47:08;75836.22;;;-146.25;72.59
32761;BME280;19126;47.472;7.850;2024-02-04T03:49:35;75842.22;;;-146.25;74.98
32761;BME280;19126;47.472;7.850;2024-02-04T03:52:03;75860.28;;;-146.25;76.05
32761;BME280;19126;47.472;7.850;2024-02-04T03:54:31;75838.22;;;-146.25;76.52
32761;BME280;19126;47.472;7.850;2024-02-04T03:56:58;75840.22;;;-146.25;77.70
32761;BME280;19126;47.472;7.850;2024-02-04T03:59:25;75858.28;;;-146.25;78.58
32761;BME280;19126;47.472;7.850;2024-02-04T04:01:52;75866.28;;;-146.25;79.04
32761;BME280;19126;47.472;7.850;2024-02-04T04:04:22;75878.31;;;-146.25;79.66
32761;BME280;19126;47.472;7.850;2024-02-04T04:06:49;75882.34;;;-146.25;79.48
32761;BME280;19126;47.472;7.850;2024-02-04T04:09:16;75886.34;;;-146.25;78.81
32761;BME280;19126;47.472;7.850;2024-02-04T04:11:44;75890.34;;;-146.25;79.09
32761;BME280;19126;47.472;7.850;2024-02-04T04:14:12;75874.31;;;-146.25;79.48
32761;BME280;19126;47.472;7.850;2024-02-04T04:16:39;75868.31;;;-146.25;79.94
32761;BME280;19126;47.472;7.850;2024-02-04T04:19:07;75876.31;;;-146.25;80.47
32761;BME280;19126;47.472;7.850;2024-02-04T04:21:37;75868.31;;;-146.25;81.17
32761;BME280;19126;47.472;7.850;2024-02-04T04:24:05;75886.34;;;-146.25;82.11
32761;BME280;19126;47.472;7.850;2024-02-04T04:26:32;75892.38;;;-146.25;82.41
32761;BME280;19126;47.472;7.850;2024-02-04T04:28:59;75894.38;;;-146.25;81.39
32761;BME280;19126;47.472;7.850;2024-02-04T04:31:27;75904.41;;;-146.25;81.93
32761;BME280;19126;47.472;7.850;2024-02-04T04:33:54;75892.38;;;-146.25;81.88
32761;BME280;19126;47.472;7.850;2024-02-04T04:36:22;75898.38;;;-146.25;81.88
32761;BME280;19126;47.472;7.850;2024-02-04T04:38:51;75906.41;;;-146.25;82.10
32761;BME280;19126;47.472;7.850;2024-02-04T04:41:18;75908.41;;;-146.25;82.04
32761;BME280;19126;47.472;7.850;2024-02-04T04:43:45;75904.41;;;-146.25;82.16
32761;BME280;19126;47.472;7.850;2024-02-04T04:46:13;75904.41;;;-146.25;82.39
32761;BME280;19126;47.472;7.850;2024-02-04T04:48:40;75916.44;;;-146.25;82.77
32761;BME280;19126;47.472;7.850;2024-02-04T04:51:08;75922.44;;;-146.25;82.75
32761;BME280;19126;47.472;7.850;2024-02-04T04:53:37;75926.47;;;-146.25;82.16
32761;BME280;19126;47.472;7.850;2024-02-04T04:56:10;75940.50;;;-146.25;81.91
32761;BME280;19126;47.472;7.850;2024-02-04T04:58:37;75922.44;;;-146.25;82.07
32761;BME280;19126;47.472;7.850;2024-02-04T05:01:05;75940.50;;;-146.25;81.23
32761;BME280;19126;47.472;7.850;2024-02-04T05:03:32;75942.50;;;-146.25;81.51
32761;BME280;19126;47.472;7.850;2024-02-04T05:05:59;75950.53;;;-146.25;81.05
32761;BME280;19126;47.472;7.850;2024-02-04T05:08:28;75960.53;;;-146.25;80.55
32761;BME280;19126;47.472;7.850;2024-02-04T05:10:55;75968.56;;;-146.25;80.79
32761;BME280;19126;47.472;7.850;2024-02-04T05:13:38;75978.59;;;-146.25;81.17
32761;BME280;19126;47.472;7.850;2024-02-04T05:16:06;75986.63;;;-146.25;80.20
32761;BME280;19126;47.472;7.850;2024-02-04T05:18:33;75988.63;;;-146.25;80.22
32761;BME280;19126;47.472;7.850;2024-02-04T05:21:01;75996.66;;;-146.25;79.68
32761;BME280;19126;47.472;7.850;2024-02-04T05:23:29;75992.63;;;-146.25;78.93
32761;BME280;19126;47.472;7.850;2024-02-04T05:25:56;75998.66;;;-146.25;78.20
32761;BME280;19126;47.472;7.850;2024-02-04T05:28:23;75964.56;;;-146.25;76.92
32761;BME280;19126;47.472;7.850;2024-02-04T05:30:52;75984.63;;;-146.25;77.36
32761;BME280;19126;47.472;7.850;2024-02-04T05:33:19;75964.56;;;-146.25;76.74
32761;BME280;19126;47.472;7.850;2024-02-04T05:35:47;75970.56;;;-146.25;77.04
32761;BME280;19126;47.472;7.850;2024-02-04T05:38:15;75970.56;;;-146.25;76.70
32761;BME280;19126;47.472;7.850;2024-02-04T05:40:42;75978.59;;;-146.25;77.31
32761;BME280;19126;47.472;7.850;2024-02-04T05:43:10;75994.63;;;-146.25;76.60
32761;BME280;19126;47.472;7.850;2024-02-04T05:45:37;76012.69;;;-146.25;76.67
32761;BME280;19126;47.472;7.850;2024-02-04T05:48:08;76016.69;;;-146.25;76.39
32761;BME280;19126;47.472;7.850;2024-02-04T05:50:35;76034.75;;;-146.25;75.85
32761;BME280;19126;47.472;7.850;2024-02-04T05:53:03;76050.78;;;-146.25;75.80
32761;BME280;19126;47.472;7.850;2024-02-04T05:55:31;76056.81;;;-146.25;75.42
32761;BME280;19126;47.472;7.850;2024-02-04T05:57:58;76060.81;;;-146.25;74.66
32761;BME280;19126;47.472;7.850;2024-02-04T06:00:26;76066.84;;;-146.25;73.70
32761;BME280;19126;47.472;7.850;2024-02-04T06:02:53;76080.88;;;-146.25;73.49
32761;BME280;19126;47.472;7.850;2024-02-04T06:05:21;76084.88;;;-146.25;73.16
32761;BME280;19126;47.472;7.850;2024-02-04T06:07:49;76096.91;;;-146.25;72.55
32761;BME280;19126;47.472;7.850;2024-02-04T06:10:16;76096.91;;;-146.25;72.52
32761;BME280;19126;47.472;7.850;2024-02-04T06:12:44;76098.94;;;-146.25;71.94
32761;BME280;19126;47.472;7.850;2024-02-04T06:15:13;76104.94;;;-146.25;70.87
32761;BME280;19126;47.472;7.850;2024-02-04T06:17:41;76118.97;;;-146.25;70.40
32761;BME280;19126;47.472;7.850;2024-02-04T06:20:09;76118.97;;;-146.25;69.85
32761;BME280;19126;47.472;7.850;2024-02-04T06:22:38;76125.00;;;-146.25;69.35
32761;BME280;19126;47.472;7.850;2024-02-04T06:25:07;76127.00;;;-146.25;68.78
32761;BME280;19126;47.472;7.850;2024-02-04T06:27:34;76133.03;;;-146.25;68.14
32761;BME280;19126;47.472;7.850;2024-02-04T06:30:01;76139.03;;;-146.25;67.23
32761;BME280;19126;47.472;7.850;2024-02-04T06:32:29;76153.06;;;-146.25;67.06
32761;BME280;19126;47.472;7.850;2024-02-04T06:34:57;76149.06;;;-146.25;66.90
32761;BME280;19126;47.472;7.850;2024-02-04T06:37:24;76151.06;;;-146.25;66.40
32761;BME280;19126;47.472;7.850;2024-02-04T06:39:54;76145.06;;;-146.25;66.07
32761;BME280;19126;47.472;7.850;2024-02-04T06:42:21;76155.06;;;-146.25;65.68
32761;BME280;19126;47.472;7.850;2024-02-04T06:44:48;76155.06;;;-146.25;65.07
32761;BME280;19126;47.472;7.850;2024-02-04T06:47:16;76155.06;;;-146.25;64.79
32761;BME280;19126;47.472;7.850;2024-02-04T06:49:44;76165.09;;;-146.25;64.64
32761;BME280;19126;47.472;7.850;2024-02-04T06:52:13;76177.13;;;-146.25;64.46
32761;BME280;19126;47.472;7.850;2024-02-04T06:54:40;76175.13;;;-146.25;64.56
32761;BME280;19126;47.472;7.850;2024-02-04T06:57:09;76185.16;;;-146.25;64.53
32761;BME280;19126;47.472;7.850;2024-02-04T06:59:37;76179.16;;;-146.25;64.36
32761;BME280;19126;47.472;7.850;2024-02-04T07:02:04;76175.13;;;-146.25;63.56
32761;BME280;19126;47.472;7.850;2024-02-04T07:04:31;76179.16;;;-146.25;63.07
32761;BME280;19126;47.472;7.850;2024-02-04T07:06:59;76173.13;;;-146.25;62.22
32761;BME280;19126;47.472;7.850;2024-02-04T07:09:26;76169.13;;;-146.25;61.96
32761;BME280;19126;47.472;7.850;2024-02-04T07:11:53;76181.16;;;-146.25;61.29
32761;BME280;19126;47.472;7.850;2024-02-04T07:14:22;76175.13;;;-146.25;61.09
32761;BME280;19126;47.472;7.850;2024-02-04T07:16:49;76175.13;;;-146.25;60.52
32761;BME280;19126;47.472;7.850;2024-02-04T07:19:16;76179.16;;;-146.25;60.58
32761;BME280;19126;47.472;7.850;2024-02-04T07:21:44;76187.16;;;-146.25;60.40
32761;BME280;19126;47.472;7.850;2024-02-04T07:24:11;76193.19;;;-146.25;60.65
32761;BME280;19126;47.472;7.850;2024-02-04T07:26:38;76189.16;;;-146.25;59.98
32761;BME280;19126;47.472;7.850;2024-02-04T07:29:05;76187.16;;;-146.25;59.67
32761;BME280;19126;47.472;7.850;2024-02-04T07:31:34;76173.13;;;-146.25;59.83
32761;BME280;19126;47.472;7.850;2024-02-04T07:34:03;76181.16;;;-146.25;60.17
32761;BME280;19126;47.472;7.850;2024-02-04T07:36:30;76175.13;;;-146.25;59.43
32761;BME280;19126;47.472;7.850;2024-02-04T07:38:58;76177.13;;;-146.25;60.03
32761;BME280;19126;47.472;7.850;2024-02-04T07:41:26;76181.16;;;-146.25;59.14
32761;BME280;19126;47.472;7.850;2024-02-04T07:43:53;76171.13;;;-146.25;58.77
32761;BME280;19126;47.472;7.850;2024-02-04T07:46:21;76151.06;;;-146.25;58.63
32761;BME280;19126;47.472;7.850;2024-02-04T07:48:49;76139.03;;;-146.25;58.21
32761;BME280;19126;47.472;7.850;2024-02-04T07:51:17;76104.94;;;-146.25;57.46
32761;BME280;19126;47.472;7.850;2024-02-04T07:53:44;76062.81;;;-146.25;56.65
32761;BME280;19126;47.472;7.850;2024-02-04T07:56:11;76014.69;;;-146.25;56.57
32761;BME280;19126;47.472;7.850;2024-02-04T07:58:39;75986.63;;;-146.25;59.61
32761;BME280;19126;47.472;7.850;2024-02-04T08:01:06;75954.53;;;-146.25;62.20
32761;BME280;19126;47.472;7.850;2024-02-04T08:03:33;75926.47;;;-146.25;65.42
32761;BME280;19126;47.472;7.850;2024-02-04T08:06:04;75890.34;;;-146.25;69.69
32761;BME280;19126;47.472;7.850;2024-02-04T08:08:33;75874.31;;;-146.25;74.06
32761;BME280;19126;47.472;7.850;2024-02-04T08:11:01;75854.25;;;-146.25;77.58
32761;BME280;19126;47.472;7.850;2024-02-04T08:13:31;75836.22;;;-146.25;81.03
32761;BME280;19126;47.472;7.850;2024-02-04T08:16:29;75808.13;;;-146.25;83.27
32761;BME280;19126;47.472;7.850;2024-02-04T08:18:57;75790.09;;;-146.25;86.64
32761;BME280;19126;47.472;7.850;2024-02-04T08:21:26;75772.03;;;-146.25;88.67
32761;BME280;19126;47.472;7.850;2024-02-04T08:23:57;75731.94;;;-146.25;88.82
32761;BME280;19126;47.472;7.850;2024-02-04T08:26:26;75711.88;;;-146.25;89.52
32761;BME280;19126;47.472;7.850;2024-02-04T08:28:53;75683.81;;;-146.25;89.20
32761;BME280;19126;47.472;7.850;2024-02-04T08:31:20;75667.78;;;-146.25;88.24
32761;BME280;19126;47.472;7.850;2024-02-04T08:33:48;75659.75;;;-146.25;87.54
32761;BME280;19126;47.472;7.850;2024-02-04T08:36:15;75633.69;;;-146.25;86.23
32761;BME280;19126;47.472;7.850;2024-02-04T08:38:47;75627.66;;;-146.25;84.96
32761;BME280;19126;47.472;7.850;2024-02-04T08:41:14;75607.59;;;-146.25;84.26
32761;BME280;19126;47.472;7.850;2024-02-04T08:43:42;75583.53;;;-146.25;83.15
32761;BME280;19126;47.472;7.850;2024-02-04T08:46:12;75561.50;;;-146.25;81.69
32761;BME280;19126;47.472;7.850;2024-02-04T08:48:40;75535.41;;;-146.25;81.58
32761;BME280;19126;47.472;7.850;2024-02-04T08:51:11;75505.34;;;-146.25;80.02
32761;BME280;19126;47.472;7.850;2024-02-04T08:53:39;75473.25;;;-146.25;78.83
32761;BME280;19126;47.472;7.850;2024-02-04T08:56:08;75443.19;;;-146.25;77.21
32761;BME280;19126;47.472;7.850;2024-02-04T08:58:36;75429.16;;;-146.25;76.09
32761;BME280;19126;47.472;7.850;2024-02-04T09:01:04;75415.09;;;-146.25;74.42
32761;BME280;19126;47.472;7.850;2024-02-04T09:03:31;75405.09;;;-146.25;73.59
32761;BME280;19126;47.472;7.850;2024-02-04T09:05:58;75377.00;;;-146.25;74.05
32761;BME280;19126;47.472;7.850;2024-02-04T09:08:26;75342.94;;;-146.25;73.56
32761;BME280;19126;47.472;7.850;2024-02-04T09:10:53;75316.84;;;-146.25;71.67
32761;BME280;19126;47.472;7.850;2024-02-04T09:13:22;75292.78;;;-146.25;70.22
32761;BME280;19126;47.472;7.850;2024-02-04T09:15:50;75286.78;;;-146.25;68.34
32761;BME280;19126;47.472;7.850;2024-02-04T09:18:18;75286.78;;;-146.25;68.01
32761;BME280;19126;47.472;7.850;2024-02-04T09:20:46;75276.75;;;-146.25;67.49
32761;BME280;19126;47.472;7.850;2024-02-04T09:23:13;75262.72;;;-146.25;67.26
32761;BME280;19126;47.472;7.850;2024-02-04T09:25:41;75250.69;;;-146.25;66.52
32761;BME280;19126;47.472;7.850;2024-02-04T09:28:08;75234.66;;;-146.25;67.16
32761;BME280;19126;47.472;7.850;2024-02-04T09:30:37;75222.63;;;-146.25;66.97
32761;BME280;19126;47.472;7.850;2024-02-04T09:33:04;75196.56;;;-146.25;66.26
32761;BME280;19126;47.472;7.850;2024-02-04T09:35:32;75176.50;;;-146.25;65.47
32761;BME280;19126;47.472;7.850;2024-02-04T09:37:59;75162.47;;;-146.25;64.53
32761;BME280;19126;47.472;7.850;2024-02-04T09:40:27;75148.44;;;-146.25;64.21
32761;BME280;19126;47.472;7.850;2024-02-04T09:42:56;75160.47;;;-146.25;63.21
32761;BME280;19126;47.472;7.850;2024-02-04T09:45:23;75182.53;;;-146.25;62.81
32761;BME280;19126;47.472;7.850;2024-02-04T09:47:53;75164.47;;;-146.25;63.69
32761;BME280;19126;47.472;7.850;2024-02-04T09:50:21;75180.50;;;-146.25;63.35
32761;BME280;19126;47.472;7.850;2024-02-04T09:52:49;75176.50;;;-146.25;63.82
32761;BME280;19126;47.472;7.850;2024-02-04T09:55:19;75152.44;;;-146.25;64.37
32761;BME280;19126;47.472;7.850;2024-02-04T09:57:47;75158.47;;;-146.25;65.93
32761;BME280;19126;47.472;7.850;2024-02-04T10:00:19;75124.38;;;-146.25;66.42
32761;BME280;19126;47.472;7.850;2024-02-04T10:02:48;75072.25;;;-146.25;66.90
32761;BME280;19126;47.472;7.850;2024-02-04T10:05:16;75078.25;;;-146.25;65.42
32761;BME280;19126;47.472;7.850;2024-02-04T10:07:44;75120.38;;;-146.25;62.60
32761;BME280;19126;47.472;7.850;2024-02-04T10:10:12;75110.34;;;-146.25;63.14
32761;BME280;19126;47.472;7.850;2024-02-04T10:12:40;75112.34;;;-146.25;63.89
32761;BME280;19126;47.472;7.850;2024-02-04T10:15:10;75112.34;;;-146.25;65.09
32761;BME280;19126;47.472;7.850;2024-02-04T10:17:42;75086.28;;;-146.25;64.28
32761;BME280;19126;47.472;7.850;2024-02-04T10:20:12;75084.28;;;-146.25;63.97
32761;BME280;19126;47.472;7.850;2024-02-04T10:22:41;75074.25;;;-146.25;64.06
32761;BME280;19126;47.472;7.850;2024-02-04T10:25:09;75076.25;;;-146.25;62.56
32761;BME280;19126;47.472;7.850;2024-02-04T10:27:38;75088.28;;;-146.25;63.05
32761;BME280;19126;47.472;7.850;2024-02-04T10:30:07;75082.28;;;-146.25;64.69
32761;BME280;19126;47.472;7.850;2024-02-04T10:32:35;75076.25;;;-146.25;64.55
32761;BME280;19126;47.472;7.850;2024-02-04T10:35:03;75082.28;;;-146.25;64.85
32761;BME280;19126;47.472;7.850;2024-02-04T10:37:30;75082.28;;;-146.25;65.14
32761;BME280;19126;47.472;7.850;2024-02-04T10:39:58;75064.22;;;-146.25;66.96
32761;BME280;19126;47.472;7.850;2024-02-04T10:42:27;75066.22;;;-146.25;66.51
32761;BME280;19126;47.472;7.850;2024-02-04T10:44:55;75068.22;;;-146.25;67.13
32761;BME280;19126;47.472;7.850;2024-02-04T10:47:29;75072.25;;;-146.25;68.37
32761;BME280;19126;47.472;7.850;2024-02-04T10:49:59;75080.25;;;-146.25;67.89
32761;BME280;19126;47.472;7.850;2024-02-04T10:52:32;75090.28;;;-146.25;67.25
32761;BME280;19126;47.472;7.850;2024-02-04T10:55:07;75100.31;;;-146.25;67.48
32761;BME280;19126;47.472;7.850;2024-02-04T10:57:35;75106.31;;;-146.25;66.68
32761;BME280;19126;47.472;7.850;2024-02-04T11:00:05;75124.38;;;-146.25;68.44
32761;BME280;19126;47.472;7.850;2024-02-04T11:02:35;75120.38;;;-146.25;69.16
32761;BME280;19126;47.472;7.850;2024-02-04T11:05:05;75144.44;;;-146.25;70.05
32761;BME280;19126;47.472;7.850;2024-02-04T11:07:34;75146.44;;;-146.25;70.43
32761;BME280;19126;47.472;7.850;2024-02-04T11:10:04;75128.38;;;-146.25;71.77
32761;BME280;19126;47.472;7.850;2024-02-04T11:12:33;75126.38;;;-146.25;71.84
32761;BME280;19126;47.472;7.850;2024-02-04T11:15:07;75136.41;;;-146.25;70.60
32761;BME280;19126;47.472;7.850;2024-02-04T11:21:22;75140.41;;;-146.25;71.75
32761;BME280;19126;47.472;7.850;2024-02-04T11:24:08;75136.41;;;-146.25;71.40
32761;BME280;19126;47.472;7.850;2024-02-04T11:26:40;75140.41;;;-146.25;72.26
32761;BME280;19126;47.472;7.850;2024-02-04T11:29:07;75126.38;;;-146.25;72.40
32761;BME280;19126;47.472;7.850;2024-02-04T11:31:37;75128.38;;;-146.25;70.80
32761;BME280;19126;47.472;7.850;2024-02-04T11:34:05;75112.34;;;-146.25;70.06
32761;BME280;19126;47.472;7.850;2024-02-04T11:36:38;75120.38;;;-146.25;70.38
32761;BME280;19126;47.472;7.850;2024-02-04T11:39:12;75116.34;;;-146.25;70.67
32761;BME280;19126;47.472;7.850;2024-02-04T11:41:49;75124.38;;;-146.25;70.58
32761;BME280;19126;47.472;7.850;2024-02-04T11:44:23;75126.38;;;-146.25;71.14
32761;BME280;19126;47.472;7.850;2024-02-04T11:46:51;75092.28;;;-146.25;72.03
32761;BME280;19126;47.472;7.850;2024-02-04T11:49:19;75098.31;;;-146.25;69.85
32761;BME280;19126;47.472;7.850;2024-02-04T11:51:50;75088.28;;;-146.25;68.92
32761;BME280;19126;47.472;7.850;2024-02-04T11:54:19;75088.28;;;-146.25;71.19
32761;BME280;19126;47.472;7.850;2024-02-04T11:56:51;75072.25;;;-146.25;69.31
32761;BME280;19126;47.472;7.850;2024-02-04T11:59:19;75092.28;;;-146.25;69.92
32761;BME280;19126;47.472;7.850;2024-02-04T12:01:48;75088.28;;;-146.25;70.99
32761;BME280;19126;47.472;7.850;2024-02-04T12:04:16;75086.28;;;-146.25;70.79
32761;BME280;19126;47.472;7.850;2024-02-04T12:06:44;75110.34;;;-146.25;71.38
32761;BME280;19126;47.472;7.850;2024-02-04T12:09:11;75130.38;;;-146.25;71.82
32761;BME280;19126;47.472;7.850;2024-02-04T12:11:39;75154.44;;;-146.25;71.57
32761;BME280;19126;47.472;7.850;2024-02-04T12:14:08;75170.50;;;-146.25;72.55
32761;BME280;19126;47.472;7.850;2024-02-04T12:16:37;75166.47;;;-146.25;74.47
32761;BME280;19126;47.472;7.850;2024-02-04T12:19:04;75180.50;;;-146.25;73.76
32761;BME280;19126;47.472;7.850;2024-02-04T12:21:33;75170.50;;;-146.25;75.00
32761;BME280;19126;47.472;7.850;2024-02-04T12:24:02;75168.47;;;-146.25;73.95
32761;BME280;19126;47.472;7.850;2024-02-04T12:26:30;75152.44;;;-146.25;74.39
32761;BME280;19126;47.472;7.850;2024-02-04T12:28:58;75136.41;;;-146.25;73.08
32761;BME280;19126;47.472;7.850;2024-02-04T12:31:27;75122.38;;;-146.25;72.52
32761;BME280;19126;47.472;7.850;2024-02-04T12:33:56;75128.38;;;-146.25;73.41
32761;BME280;19126;47.472;7.850;2024-02-04T12:36:25;75128.38;;;-146.25;74.59
32761;BME280;19126;47.472;7.850;2024-02-04T12:38:54;75148.44;;;-146.25;75.08
32761;BME280;19126;47.472;7.850;2024-02-04T12:41:22;75148.44;;;-146.25;75.90
32761;BME280;19126;47.472;7.850;2024-02-04T12:43:53;75134.41;;;-146.25;76.46
32761;BME280;19126;47.472;7.850;2024-02-04T12:46:22;75114.34;;;-146.25;75.22
32761;BME280;19126;47.472;7.850;2024-02-04T12:48:55;75122.38;;;-146.25;74.13
32761;BME280;19126;47.472;7.850;2024-02-04T12:51:26;75106.31;;;-146.25;73.45